sensor_id;sensor_type;location;lat;lon;timestamp;temperature;humidity
74513;DHT22;62992;52.052;8.550;2022-08-21T00:00:27;16.50;99.90
74513;DHT22;62992;52.052;8.550;2022-08-21T00:02:59;16.50;99.90
74513;DHT22;62992;52.052;8.550;2022-08-21T00:05:27;16.40;99.90
74513;DHT22;62992;52.052;8.550;2022-08-21T00:07:53;16.40;99.90
74513;DHT22;62992;52.052;8.550;2022-08-21T00:10:20;16.40;99.90
74513;DHT22;62992;52.052;8.550;2022-08-21T00:12:46;16.40;99.90
74513;DHT22;62992;52.052;8.550;2022-08-21T00:15:16;16.30;99.90
74513;DHT22;62992;52.052;8.550;2022-08-21T00:17:42;16.30;99.90
74513;DHT22;62992;52.052;8.550;2022-08-21T00:20:09;16.30;99.90
74513;DHT22;62992;52.052;8.550;2022-08-21T00:22:36;16.40;99.90
74513;DHT22;62992;52.052;8.550;2022-08-21T00:25:04;16.40;99.90
74513;DHT22;62992;52.052;8.550;2022-08-21T00:27:31;16.30;99.90
74513;DHT22;62992;52.052;8.550;2022-08-21T00:29:56;16.40;99.90
74513;DHT22;62992;52.052;8.550;2022-08-21T00:32:24;16.30;99.90
74513;DHT22;62992;52.052;8.550;2022-08-21T00:34:50;16.20;99.90
74513;DHT22;62992;52.052;8.550;2022-08-21T00:37:16;16.30;99.90
74513;DHT22;62992;52.052;8.550;2022-08-21T00:39:42;16.20;99.90
74513;DHT22;62992;52.052;8.550;2022-08-21T00:42:09;16.20;99.90
74513;DHT22;62992;52.052;8.550;2022-08-21T00:44:35;16.20;99.90
74513;DHT22;62992;52.052;8.550;2022-08-21T00:47:00;16.20;99.90
74513;DHT22;62992;52.052;8.550;2022-08-21T00:49:26;16.20;99.90
74513;DHT22;62992;52.052;8.550;2022-08-21T00:51:55;16.20;99.90
74513;DHT22;62992;52.052;8.550;2022-08-21T00:54:25;16.20;99.90
74513;DHT22;62992;52.052;8.550;2022-08-21T00:56:54;16.30;99.90
74513;DHT22;62992;52.052;8.550;2022-08-21T00:59:21;16.30;99.90
74513;DHT22;62992;52.052;8.550;2022-08-21T01:01:48;16.20;99.90
74513;DHT22;62992;52.052;8.550;2022-08-21T01:04:15;16.30;99.90
74513;DHT22;62992;52.052;8.550;2022-08-21T01:06:41;16.30;99.90
74513;DHT22;62992;52.052;8.550;2022-08-21T01:09:07;16.30;99.90
74513;DHT22;62992;52.052;8.550;2022-08-21T01:11:34;16.20;99.90
74513;DHT22;62992;52.052;8.550;2022-08-21T01:14:00;16.10;99.90
74513;DHT22;62992;52.052;8.550;2022-08-21T01:16:26;16.00;99.90
74513;DHT22;62992;52.052;8.550;2022-08-21T01:18:52;16.00;99.90
74513;DHT22;62992;52.052;8.550;2022-08-21T01:21:25;16.00;99.90
74513;DHT22;62992;52.052;8.550;2022-08-21T01:23:53;15.90;99.90
74513;DHT22;62992;52.052;8.550;2022-08-21T01:26:23;15.90;99.90
74513;DHT22;62992;52.052;8.550;2022-08-21T01:31:39;15.80;99.90
74513;DHT22;62992;52.052;8.550;2022-08-21T01:34:05;15.70;99.90
74513;DHT22;62992;52.052;8.550;2022-08-21T01:36:32;15.70;99.90
74513;DHT22;62992;52.052;8.550;2022-08-21T01:38:58;15.70;99.90
74513;DHT22;62992;52.052;8.550;2022-08-21T01:41:23;15.70;99.90
74513;DHT22;62992;52.052;8.550;2022-08-21T01:43:49;15.70;99.90
74513;DHT22;62992;52.052;8.550;2022-08-21T01:46:15;15.70;99.90
74513;DHT22;62992;52.052;8.550;2022-08-21T01:48:41;15.70;99.90
74513;DHT22;62992;52.052;8.550;2022-08-21T01:51:07;15.70;99.90
74513;DHT22;62992;52.052;8.550;2022-08-21T01:53:34;15.60;99.90
74513;DHT22;62992;52.052;8.550;2022-08-21T01:56:06;15.60;99.90
74513;DHT22;62992;52.052;8.550;2022-08-21T01:58:32;15.60;99.90
74513;DHT22;62992;52.052;8.550;2022-08-21T02:00:59;15.60;99.90
74513;DHT22;62992;52.052;8.550;2022-08-21T02:03:27;15.60;99.90
74513;DHT22;62992;52.052;8.550;2022-08-21T02:05:53;15.60;99.90
74513;DHT22;62992;52.052;8.550;2022-08-21T02:08:19;15.50;99.90
74513;DHT22;62992;52.052;8.550;2022-08-21T02:10:44;15.50;99.90
74513;DHT22;62992;52.052;8.550;2022-08-21T02:13:12;15.60;99.90
74513;DHT22;62992;52.052;8.550;2022-08-21T02:15:37;15.70;99.90
74513;DHT22;62992;52.052;8.550;2022-08-21T02:18:05;15.80;99.90
74513;DHT22;62992;52.052;8.550;2022-08-21T02:20:37;15.80;99.90
74513;DHT22;62992;52.052;8.550;2022-08-21T02:23:04;15.80;99.90
74513;DHT22;62992;52.052;8.550;2022-08-21T02:25:31;15.90;99.90
74513;DHT22;62992;52.052;8.550;2022-08-21T02:27:58;15.90;99.90
74513;DHT22;62992;52.052;8.550;2022-08-21T02:30:27;15.80;99.90
74513;DHT22;62992;52.052;8.550;2022-08-21T02:32:53;15.80;99.90
74513;DHT22;62992;52.052;8.550;2022-08-21T02:35:20;15.70;99.90
74513;DHT22;62992;52.052;8.550;2022-08-21T02:37:58;15.70;99.90
74513;DHT22;62992;52.052;8.550;2022-08-21T02:40:27;15.70;99.90
74513;DHT22;62992;52.052;8.550;2022-08-21T02:42:53;15.60;99.90
74513;DHT22;62992;52.052;8.550;2022-08-21T02:45:19;15.50;99.90
74513;DHT22;62992;52.052;8.550;2022-08-21T02:47:54;15.60;99.90
74513;DHT22;62992;52.052;8.550;2022-08-21T02:50:22;15.50;99.90
74513;DHT22;62992;52.052;8.550;2022-08-21T02:52:48;15.50;99.90
74513;DHT22;62992;52.052;8.550;2022-08-21T02:55:15;15.50;99.90
74513;DHT22;62992;52.052;8.550;2022-08-21T02:57:41;15.40;99.90
74513;DHT22;62992;52.052;8.550;2022-08-21T03:00:07;15.40;99.90
74513;DHT22;62992;52.052;8.550;2022-08-21T03:02:34;15.40;99.90
74513;DHT22;62992;52.052;8.550;2022-08-21T03:05:00;15.40;99.90
74513;DHT22;62992;52.052;8.550;2022-08-21T03:07:26;15.40;99.90
74513;DHT22;62992;52.052;8.550;2022-08-21T03:09:52;15.40;99.90
74513;DHT22;62992;52.052;8.550;2022-08-21T03:12:18;15.30;99.90
74513;DHT22;62992;52.052;8.550;2022-08-21T03:14:43;15.30;99.90
74513;DHT22;62992;52.052;8.550;2022-08-21T03:17:09;15.40;99.90
74513;DHT22;62992;52.052;8.550;2022-08-21T03:19:35;15.30;99.90
74513;DHT22;62992;52.052;8.550;2022-08-21T03:22:00;15.40;99.90
74513;DHT22;62992;52.052;8.550;2022-08-21T03:24:26;15.50;99.90
74513;DHT22;62992;52.052;8.550;2022-08-21T03:26:51;15.60;99.90
74513;DHT22;62992;52.052;8.550;2022-08-21T03:29:17;15.60;99.90
74513;DHT22;62992;52.052;8.550;2022-08-21T03:31:43;15.60;99.90
74513;DHT22;62992;52.052;8.550;2022-08-21T03:34:08;15.70;99.90
74513;DHT22;62992;52.052;8.550;2022-08-21T03:36:34;15.60;99.90
74513;DHT22;62992;52.052;8.550;2022-08-21T03:39:00;15.60;99.90
74513;DHT22;62992;52.052;8.550;2022-08-21T03:41:25;15.50;99.90
74513;DHT22;62992;52.052;8.550;2022-08-21T03:43:51;15.50;99.90
74513;DHT22;62992;52.052;8.550;2022-08-21T03:46:17;15.40;99.90
74513;DHT22;62992;52.052;8.550;2022-08-21T03:48:42;15.40;99.90
74513;DHT22;62992;52.052;8.550;2022-08-21T03:51:08;15.50;99.90
74513;DHT22;62992;52.052;8.550;2022-08-21T03:53:34;15.40;99.90
74513;DHT22;62992;52.052;8.550;2022-08-21T03:56:00;15.40;99.90
74513;DHT22;62992;52.052;8.550;2022-08-21T03:58:27;15.40;99.90
74513;DHT22;62992;52.052;8.550;2022-08-21T04:00:56;15.40;99.90
74513;DHT22;62992;52.052;8.550;2022-08-21T04:03:23;15.50;99.90
74513;DHT22;62992;52.052;8.550;2022-08-21T04:05:49;15.40;99.90
74513;DHT22;62992;52.052;8.550;2022-08-21T04:08:15;15.40;99.90
74513;DHT22;62992;52.052;8.550;2022-08-21T04:10:45;15.40;99.90
74513;DHT22;62992;52.052;8.550;2022-08-21T04:13:11;15.30;99.90
74513;DHT22;62992;52.052;8.550;2022-08-21T04:15:37;15.30;99.90
74513;DHT22;62992;52.052;8.550;2022-08-21T04:18:04;15.30;99.90
74513;DHT22;62992;52.052;8.550;2022-08-21T04:20:29;15.30;99.90
74513;DHT22;62992;52.052;8.550;2022-08-21T04:22:55;15.30;99.90
74513;DHT22;62992;52.052;8.550;2022-08-21T04:25:22;15.20;99.90
74513;DHT22;62992;52.052;8.550;2022-08-21T04:27:49;15.20;99.90
74513;DHT22;62992;52.052;8.550;2022-08-21T04:30:16;15.20;99.90
74513;DHT22;62992;52.052;8.550;2022-08-21T04:32:46;15.20;99.90
74513;DHT22;62992;52.052;8.550;2022-08-21T04:35:13;15.10;99.90
74513;DHT22;62992;52.052;8.550;2022-08-21T04:37:39;15.10;99.90
74513;DHT22;62992;52.052;8.550;2022-08-21T04:40:07;15.10;99.90
74513;DHT22;62992;52.052;8.550;2022-08-21T04:42:47;15.10;99.90
74513;DHT22;62992;52.052;8.550;2022-08-21T04:47:49;15.10;99.90
74513;DHT22;62992;52.052;8.550;2022-08-21T04:50:14;15.10;99.90
74513;DHT22;62992;52.052;8.550;2022-08-21T04:52:40;15.10;99.90
74513;DHT22;62992;52.052;8.550;2022-08-21T04:55:06;15.10;99.90
74513;DHT22;62992;52.052;8.550;2022-08-21T04:57:34;15.10;99.90
74513;DHT22;62992;52.052;8.550;2022-08-21T05:00:00;15.00;99.90
74513;DHT22;62992;52.052;8.550;2022-08-21T05:02:26;15.00;99.90
74513;DHT22;62992;52.052;8.550;2022-08-21T05:04:53;15.10;99.90
74513;DHT22;62992;52.052;8.550;2022-08-21T05:07:23;15.10;99.90
74513;DHT22;62992;52.052;8.550;2022-08-21T05:09:50;15.10;99.90
74513;DHT22;62992;52.052;8.550;2022-08-21T05:12:16;15.10;99.90
74513;DHT22;62992;52.052;8.550;2022-08-21T05:14:42;15.10;99.90
74513;DHT22;62992;52.052;8.550;2022-08-21T05:17:09;15.10;99.90
74513;DHT22;62992;52.052;8.550;2022-08-21T05:19:35;15.20;99.90
74513;DHT22;62992;52.052;8.550;2022-08-21T05:22:01;15.20;99.90
74513;DHT22;62992;52.052;8.550;2022-08-21T05:24:27;15.30;99.90
74513;DHT22;62992;52.052;8.550;2022-08-21T05:26:53;15.30;99.90
74513;DHT22;62992;52.052;8.550;2022-08-21T05:29:19;15.30;99.90
74513;DHT22;62992;52.052;8.550;2022-08-21T05:31:45;15.40;99.90
74513;DHT22;62992;52.052;8.550;2022-08-21T05:34:13;15.50;99.90
74513;DHT22;62992;52.052;8.550;2022-08-21T05:36:38;15.50;99.90
74513;DHT22;62992;52.052;8.550;2022-08-21T05:39:05;15.60;99.90
74513;DHT22;62992;52.052;8.550;2022-08-21T05:41:30;15.60;99.90
74513;DHT22;62992;52.052;8.550;2022-08-21T05:43:56;15.80;99.90
74513;DHT22;62992;52.052;8.550;2022-08-21T05:46:23;16.10;99.90
74513;DHT22;62992;52.052;8.550;2022-08-21T05:48:48;16.20;99.90
74513;DHT22;62992;52.052;8.550;2022-08-21T05:51:15;16.40;99.90
74513;DHT22;62992;52.052;8.550;2022-08-21T05:53:41;16.50;99.90
74513;DHT22;62992;52.052;8.550;2022-08-21T05:56:08;16.60;99.90
74513;DHT22;62992;52.052;8.550;2022-08-21T05:58:34;16.70;99.90
74513;DHT22;62992;52.052;8.550;2022-08-21T06:01:01;17.70;99.90
74513;DHT22;62992;52.052;8.550;2022-08-21T06:03:29;18.60;99.90
74513;DHT22;62992;52.052;8.550;2022-08-21T06:05:56;18.50;99.90
74513;DHT22;62992;52.052;8.550;2022-08-21T06:08:23;19.00;99.90
74513;DHT22;62992;52.052;8.550;2022-08-21T06:10:50;19.50;99.90
74513;DHT22;62992;52.052;8.550;2022-08-21T06:13:18;19.70;99.90
74513;DHT22;62992;52.052;8.550;2022-08-21T06:15:44;19.70;99.90
74513;DHT22;62992;52.052;8.550;2022-08-21T06:18:10;21.50;99.90
74513;DHT22;62992;52.052;8.550;2022-08-21T06:20:37;23.20;99.90
74513;DHT22;62992;52.052;8.550;2022-08-21T06:23:03;23.00;99.90
74513;DHT22;62992;52.052;8.550;2022-08-21T06:25:29;22.60;99.90
74513;DHT22;62992;52.052;8.550;2022-08-21T06:28:05;22.10;99.90
74513;DHT22;62992;52.052;8.550;2022-08-21T06:30:32;22.30;99.90
74513;DHT22;62992;52.052;8.550;2022-08-21T06:32:58;21.40;99.90
74513;DHT22;62992;52.052;8.550;2022-08-21T06:35:24;20.40;99.90
74513;DHT22;62992;52.052;8.550;2022-08-21T06:37:50;19.70;99.90
74513;DHT22;62992;52.052;8.550;2022-08-21T06:40:16;19.50;99.90
74513;DHT22;62992;52.052;8.550;2022-08-21T06:42:42;19.40;99.90
74513;DHT22;62992;52.052;8.550;2022-08-21T06:45:08;19.00;99.90
74513;DHT22;62992;52.052;8.550;2022-08-21T06:47:33;18.70;99.90
74513;DHT22;62992;52.052;8.550;2022-08-21T06:49:59;18.50;99.90
74513;DHT22;62992;52.052;8.550;2022-08-21T06:52:25;18.60;99.90
74513;DHT22;62992;52.052;8.550;2022-08-21T06:54:50;18.60;99.90
74513;DHT22;62992;52.052;8.550;2022-08-21T06:57:16;18.70;99.90
74513;DHT22;62992;52.052;8.550;2022-08-21T06:59:42;18.80;99.90
74513;DHT22;62992;52.052;8.550;2022-08-21T07:02:07;18.80;99.90
74513;DHT22;62992;52.052;8.550;2022-08-21T07:04:33;18.90;99.90
74513;DHT22;62992;52.052;8.550;2022-08-21T07:06:59;18.90;99.90
74513;DHT22;62992;52.052;8.550;2022-08-21T07:09:24;18.90;99.90
74513;DHT22;62992;52.052;8.550;2022-08-21T07:11:52;18.90;99.90
74513;DHT22;62992;52.052;8.550;2022-08-21T07:14:18;18.90;99.90
74513;DHT22;62992;52.052;8.550;2022-08-21T07:16:44;19.10;99.90
74513;DHT22;62992;52.052;8.550;2022-08-21T07:19:10;19.20;99.90
74513;DHT22;62992;52.052;8.550;2022-08-21T07:21:36;19.40;99.90
74513;DHT22;62992;52.052;8.550;2022-08-21T07:24:02;20.20;99.90
74513;DHT22;62992;52.052;8.550;2022-08-21T07:26:28;21.50;99.90
74513;DHT22;62992;52.052;8.550;2022-08-21T07:28:53;23.60;99.90
74513;DHT22;62992;52.052;8.550;2022-08-21T07:31:21;25.60;99.90
74513;DHT22;62992;52.052;8.550;2022-08-21T07:33:47;26.80;99.90
74513;DHT22;62992;52.052;8.550;2022-08-21T07:36:14;27.70;98.20
74513;DHT22;62992;52.052;8.550;2022-08-21T07:38:39;28.30;96.60
74513;DHT22;62992;52.052;8.550;2022-08-21T07:41:21;28.30;96.40
74513;DHT22;62992;52.052;8.550;2022-08-21T07:43:46;28.20;95.50
74513;DHT22;62992;52.052;8.550;2022-08-21T07:46:12;28.10;96.90
74513;DHT22;62992;52.052;8.550;2022-08-21T07:48:38;27.40;95.70
74513;DHT22;62992;52.052;8.550;2022-08-21T07:51:09;27.20;96.40
74513;DHT22;62992;52.052;8.550;2022-08-21T07:53:36;27.10;97.20
74513;DHT22;62992;52.052;8.550;2022-08-21T07:56:03;27.80;95.80
74513;DHT22;62992;52.052;8.550;2022-08-21T07:58:30;28.70;93.90
74513;DHT22;62992;52.052;8.550;2022-08-21T08:00:56;27.70;94.00
74513;DHT22;62992;52.052;8.550;2022-08-21T08:03:21;28.40;93.60
74513;DHT22;62992;52.052;8.550;2022-08-21T08:05:47;28.20;93.60
74513;DHT22;62992;52.052;8.550;2022-08-21T08:08:13;28.40;92.80
74513;DHT22;62992;52.052;8.550;2022-08-21T08:10:39;29.20;93.40
74513;DHT22;62992;52.052;8.550;2022-08-21T08:13:05;29.90;91.50
74513;DHT22;62992;52.052;8.550;2022-08-21T08:15:30;29.50;90.70
74513;DHT22;62992;52.052;8.550;2022-08-21T08:17:56;29.70;91.40
74513;DHT22;62992;52.052;8.550;2022-08-21T08:20:23;29.80;90.90
74513;DHT22;62992;52.052;8.550;2022-08-21T08:22:50;28.80;91.10
74513;DHT22;62992;52.052;8.550;2022-08-21T08:25:17;28.60;91.40
74513;DHT22;62992;52.052;8.550;2022-08-21T08:27:43;28.40;91.90
74513;DHT22;62992;52.052;8.550;2022-08-21T08:30:11;28.40;91.50
74513;DHT22;62992;52.052;8.550;2022-08-21T08:32:37;28.90;91.20
74513;DHT22;62992;52.052;8.550;2022-08-21T08:35:04;29.30;90.70
74513;DHT22;62992;52.052;8.550;2022-08-21T08:37:29;29.40;89.20
74513;DHT22;62992;52.052;8.550;2022-08-21T08:39:55;29.10;90.10
74513;DHT22;62992;52.052;8.550;2022-08-21T08:42:25;29.20;89.90
74513;DHT22;62992;52.052;8.550;2022-08-21T08:45:04;28.40;90.40
74513;DHT22;62992;52.052;8.550;2022-08-21T08:47:38;27.50;90.70
74513;DHT22;62992;52.052;8.550;2022-08-21T08:52:40;29.20;90.30
74513;DHT22;62992;52.052;8.550;2022-08-21T08:55:13;29.40;88.50
74513;DHT22;62992;52.052;8.550;2022-08-21T08:57:44;29.20;89.70
74513;DHT22;62992;52.052;8.550;2022-08-21T09:00:13;28.30;90.20
74513;DHT22;62992;52.052;8.550;2022-08-21T09:02:43;27.20;91.90
74513;DHT22;62992;52.052;8.550;2022-08-21T09:05:27;27.90;92.70
74513;DHT22;62992;52.052;8.550;2022-08-21T09:08:07;27.90;89.30
74513;DHT22;62992;52.052;8.550;2022-08-21T09:11:09;27.80;90.90
74513;DHT22;62992;52.052;8.550;2022-08-21T09:14:11;27.80;90.10
74513;DHT22;62992;52.052;8.550;2022-08-21T09:22:00;27.50;90.90
74513;DHT22;62992;52.052;8.550;2022-08-21T09:24:32;27.50;92.00
74513;DHT22;62992;52.052;8.550;2022-08-21T09:27:17;27.50;90.40
74513;DHT22;62992;52.052;8.550;2022-08-21T09:29:45;27.80;91.60
74513;DHT22;62992;52.052;8.550;2022-08-21T09:32:19;28.40;91.60
74513;DHT22;62992;52.052;8.550;2022-08-21T09:38:06;26.70;91.80
74513;DHT22;62992;52.052;8.550;2022-08-21T09:40:45;27.30;92.40
74513;DHT22;62992;52.052;8.550;2022-08-21T09:45:37;28.00;91.50
74513;DHT22;62992;52.052;8.550;2022-08-21T09:50:34;27.60;89.90
74513;DHT22;62992;52.052;8.550;2022-08-21T09:53:00;26.50;92.60
74513;DHT22;62992;52.052;8.550;2022-08-21T09:55:38;26.80;91.90
74513;DHT22;62992;52.052;8.550;2022-08-21T09:58:30;27.60;91.40
74513;DHT22;62992;52.052;8.550;2022-08-21T10:00:59;28.00;91.30
74513;DHT22;62992;52.052;8.550;2022-08-21T10:03:25;27.20;90.70
74513;DHT22;62992;52.052;8.550;2022-08-21T10:06:05;26.70;91.30
74513;DHT22;62992;52.052;8.550;2022-08-21T10:08:35;27.70;91.80
74513;DHT22;62992;52.052;8.550;2022-08-21T10:11:14;27.90;90.50
74513;DHT22;62992;52.052;8.550;2022-08-21T10:14:22;28.20;91.40
74513;DHT22;62992;52.052;8.550;2022-08-21T10:17:01;28.00;91.50
74513;DHT22;62992;52.052;8.550;2022-08-21T10:24:41;27.30;92.60
74513;DHT22;62992;52.052;8.550;2022-08-21T10:30:08;25.80;93.90
74513;DHT22;62992;52.052;8.550;2022-08-21T10:32:56;25.80;94.50
74513;DHT22;62992;52.052;8.550;2022-08-21T10:35:37;25.40;95.40
74513;DHT22;62992;52.052;8.550;2022-08-21T10:54:53;27.50;90.70
74513;DHT22;62992;52.052;8.550;2022-08-21T10:57:43;27.80;91.90
74513;DHT22;62992;52.052;8.550;2022-08-21T11:00:20;27.70;90.20
74513;DHT22;62992;52.052;8.550;2022-08-21T11:03:12;27.80;91.50
74513;DHT22;62992;52.052;8.550;2022-08-21T11:05:44;27.90;91.60
74513;DHT22;62992;52.052;8.550;2022-08-21T11:08:24;27.50;91.30
74513;DHT22;62992;52.052;8.550;2022-08-21T11:11:03;27.50;92.30
74513;DHT22;62992;52.052;8.550;2022-08-21T11:13:45;28.00;91.40
74513;DHT22;62992;52.052;8.550;2022-08-21T11:16:23;28.40;91.40
74513;DHT22;62992;52.052;8.550;2022-08-21T11:18:56;28.80;90.50
74513;DHT22;62992;52.052;8.550;2022-08-21T11:26:46;28.60;90.80
74513;DHT22;62992;52.052;8.550;2022-08-21T11:32:31;28.70;90.50
74513;DHT22;62992;52.052;8.550;2022-08-21T11:37:45;28.80;90.70
74513;DHT22;62992;52.052;8.550;2022-08-21T11:45:45;28.00;90.30
74513;DHT22;62992;52.052;8.550;2022-08-21T11:48:40;27.30;90.20
74513;DHT22;62992;52.052;8.550;2022-08-21T11:51:28;27.20;91.00
74513;DHT22;62992;52.052;8.550;2022-08-21T11:55:11;27.00;92.50
74513;DHT22;62992;52.052;8.550;2022-08-21T12:00:24;27.90;91.90
74513;DHT22;62992;52.052;8.550;2022-08-21T12:02:55;28.10;91.00
74513;DHT22;62992;52.052;8.550;2022-08-21T12:05:33;28.20;90.90
74513;DHT22;62992;52.052;8.550;2022-08-21T12:08:14;28.30;91.00
74513;DHT22;62992;52.052;8.550;2022-08-21T12:11:06;27.90;91.00
74513;DHT22;62992;52.052;8.550;2022-08-21T12:13:37;27.50;92.40
74513;DHT22;62992;52.052;8.550;2022-08-21T12:16:15;27.50;92.10
74513;DHT22;62992;52.052;8.550;2022-08-21T12:19:29;26.90;90.40
74513;DHT22;62992;52.052;8.550;2022-08-21T12:22:09;27.10;92.00
74513;DHT22;62992;52.052;8.550;2022-08-21T12:24:48;27.30;92.30
74513;DHT22;62992;52.052;8.550;2022-08-21T12:29:49;26.40;93.20
74513;DHT22;62992;52.052;8.550;2022-08-21T12:34:46;26.40;91.60
74513;DHT22;62992;52.052;8.550;2022-08-21T12:40:00;26.30;91.60
74513;DHT22;62992;52.052;8.550;2022-08-21T12:42:38;26.60;92.10
74513;DHT22;62992;52.052;8.550;2022-08-21T12:45:32;26.50;91.80
74513;DHT22;62992;52.052;8.550;2022-08-21T12:48:16;26.30;91.10
74513;DHT22;62992;52.052;8.550;2022-08-21T12:50:50;26.20;91.20
74513;DHT22;62992;52.052;8.550;2022-08-21T12:53:38;26.40;91.70
74513;DHT22;62992;52.052;8.550;2022-08-21T12:56:09;26.30;92.10
74513;DHT22;62992;52.052;8.550;2022-08-21T12:58:39;26.30;90.80
74513;DHT22;62992;52.052;8.550;2022-08-21T13:01:13;26.30;92.10
74513;DHT22;62992;52.052;8.550;2022-08-21T13:03:43;26.50;90.90
74513;DHT22;62992;52.052;8.550;2022-08-21T13:06:14;26.30;88.80
74513;DHT22;62992;52.052;8.550;2022-08-21T13:08:43;26.60;91.10
74513;DHT22;62992;52.052;8.550;2022-08-21T13:11:09;26.70;90.50
74513;DHT22;62992;52.052;8.550;2022-08-21T13:13:35;26.70;90.50
74513;DHT22;62992;52.052;8.550;2022-08-21T13:16:04;26.50;91.50
74513;DHT22;62992;52.052;8.550;2022-08-21T13:18:34;26.30;91.10
74513;DHT22;62992;52.052;8.550;2022-08-21T13:21:27;26.10;91.20
74513;DHT22;62992;52.052;8.550;2022-08-21T13:23:53;26.40;92.50
74513;DHT22;62992;52.052;8.550;2022-08-21T13:26:20;26.40;91.70
74513;DHT22;62992;52.052;8.550;2022-08-21T13:28:48;26.60;90.90
74513;DHT22;62992;52.052;8.550;2022-08-21T13:31:22;26.60;90.50
74513;DHT22;62992;52.052;8.550;2022-08-21T13:33:50;26.30;90.90
74513;DHT22;62992;52.052;8.550;2022-08-21T13:36:26;25.80;91.70
74513;DHT22;62992;52.052;8.550;2022-08-21T13:38:54;26.00;92.30
74513;DHT22;62992;52.052;8.550;2022-08-21T13:41:27;26.10;92.10
74513;DHT22;62992;52.052;8.550;2022-08-21T13:43:59;26.00;91.50
74513;DHT22;62992;52.052;8.550;2022-08-21T13:46:36;26.10;92.10
74513;DHT22;62992;52.052;8.550;2022-08-21T13:49:03;26.00;92.40
74513;DHT22;62992;52.052;8.550;2022-08-21T13:51:30;26.00;92.10
74513;DHT22;62992;52.052;8.550;2022-08-21T13:53:57;25.70;91.90
74513;DHT22;62992;52.052;8.550;2022-08-21T13:56:30;25.70;92.40
74513;DHT22;62992;52.052;8.550;2022-08-21T13:58:57;25.80;91.90
74513;DHT22;62992;52.052;8.550;2022-08-21T14:01:27;26.00;92.40
74513;DHT22;62992;52.052;8.550;2022-08-21T14:03:59;26.20;92.20
74513;DHT22;62992;52.052;8.550;2022-08-21T14:06:32;26.20;91.60
74513;DHT22;62992;52.052;8.550;2022-08-21T14:09:01;26.10;91.90
74513;DHT22;62992;52.052;8.550;2022-08-21T14:11:31;26.10;91.90
74513;DHT22;62992;52.052;8.550;2022-08-21T14:14:01;25.90;90.80
74513;DHT22;62992;52.052;8.550;2022-08-21T14:16:44;25.70;91.70
74513;DHT22;62992;52.052;8.550;2022-08-21T14:19:24;25.80;91.30
74513;DHT22;62992;52.052;8.550;2022-08-21T14:21:50;25.80;92.40
74513;DHT22;62992;52.052;8.550;2022-08-21T14:26:56;25.70;90.10
74513;DHT22;62992;52.052;8.550;2022-08-21T14:29:26;25.70;90.60
74513;DHT22;62992;52.052;8.550;2022-08-21T14:31:55;25.60;91.80
74513;DHT22;62992;52.052;8.550;2022-08-21T14:34:25;25.60;91.10
74513;DHT22;62992;52.052;8.550;2022-08-21T14:36:53;25.70;91.10
74513;DHT22;62992;52.052;8.550;2022-08-21T14:39:20;25.70;90.30
74513;DHT22;62992;52.052;8.550;2022-08-21T14:41:45;25.60;90.80
74513;DHT22;62992;52.052;8.550;2022-08-21T14:44:14;25.40;91.90
74513;DHT22;62992;52.052;8.550;2022-08-21T14:46:41;25.40;91.70
74513;DHT22;62992;52.052;8.550;2022-08-21T14:49:07;25.30;90.90
74513;DHT22;62992;52.052;8.550;2022-08-21T14:51:33;25.30;90.90
74513;DHT22;62992;52.052;8.550;2022-08-21T14:53:59;25.40;90.30
74513;DHT22;62992;52.052;8.550;2022-08-21T14:56:24;25.30;90.30
74513;DHT22;62992;52.052;8.550;2022-08-21T14:58:52;25.20;90.60
74513;DHT22;62992;52.052;8.550;2022-08-21T15:01:20;25.10;90.80
74513;DHT22;62992;52.052;8.550;2022-08-21T15:03:46;25.10;91.30
74513;DHT22;62992;52.052;8.550;2022-08-21T15:06:14;25.10;91.30
74513;DHT22;62992;52.052;8.550;2022-08-21T15:08:41;25.00;91.50
74513;DHT22;62992;52.052;8.550;2022-08-21T15:11:09;25.00;91.70
74513;DHT22;62992;52.052;8.550;2022-08-21T15:13:36;25.00;91.50
74513;DHT22;62992;52.052;8.550;2022-08-21T15:16:02;25.00;91.70
74513;DHT22;62992;52.052;8.550;2022-08-21T15:18:29;25.10;92.10
74513;DHT22;62992;52.052;8.550;2022-08-21T15:20:55;25.10;91.90
74513;DHT22;62992;52.052;8.550;2022-08-21T15:23:21;25.10;91.50
74513;DHT22;62992;52.052;8.550;2022-08-21T15:25:48;25.00;91.50
74513;DHT22;62992;52.052;8.550;2022-08-21T15:28:16;24.90;91.70
74513;DHT22;62992;52.052;8.550;2022-08-21T15:30:43;24.70;92.20
74513;DHT22;62992;52.052;8.550;2022-08-21T15:33:10;24.80;91.80
74513;DHT22;62992;52.052;8.550;2022-08-21T15:35:36;24.80;91.40
74513;DHT22;62992;52.052;8.550;2022-08-21T15:38:02;24.70;92.40
74513;DHT22;62992;52.052;8.550;2022-08-21T15:40:28;24.60;92.50
74513;DHT22;62992;52.052;8.550;2022-08-21T15:42:58;24.60;92.30
74513;DHT22;62992;52.052;8.550;2022-08-21T15:45:24;24.40;92.50
74513;DHT22;62992;52.052;8.550;2022-08-21T15:47:51;24.40;92.80
74513;DHT22;62992;52.052;8.550;2022-08-21T15:50:18;24.40;92.50
74513;DHT22;62992;52.052;8.550;2022-08-21T15:52:44;24.40;92.20
74513;DHT22;62992;52.052;8.550;2022-08-21T15:55:10;24.50;92.00
74513;DHT22;62992;52.052;8.550;2022-08-21T15:57:37;24.50;92.20
74513;DHT22;62992;52.052;8.550;2022-08-21T16:00:10;24.60;92.10
74513;DHT22;62992;52.052;8.550;2022-08-21T16:02:39;24.60;91.60
74513;DHT22;62992;52.052;8.550;2022-08-21T16:05:06;24.50;91.80
74513;DHT22;62992;52.052;8.550;2022-08-21T16:07:32;24.50;92.00
74513;DHT22;62992;52.052;8.550;2022-08-21T16:09:58;24.50;91.50
74513;DHT22;62992;52.052;8.550;2022-08-21T16:12:29;24.50;92.10
74513;DHT22;62992;52.052;8.550;2022-08-21T16:14:59;24.40;93.00
74513;DHT22;62992;52.052;8.550;2022-08-21T16:17:28;24.20;92.70
74513;DHT22;62992;52.052;8.550;2022-08-21T16:19:56;24.10;92.60
74513;DHT22;62992;52.052;8.550;2022-08-21T16:22:22;24.10;92.50
74513;DHT22;62992;52.052;8.550;2022-08-21T16:24:47;24.00;92.00
74513;DHT22;62992;52.052;8.550;2022-08-21T16:27:13;23.90;92.40
74513;DHT22;62992;52.052;8.550;2022-08-21T16:29:39;23.70;94.10
74513;DHT22;62992;52.052;8.550;2022-08-21T16:32:05;23.60;93.40
74513;DHT22;62992;52.052;8.550;2022-08-21T16:34:32;23.60;92.60
74513;DHT22;62992;52.052;8.550;2022-08-21T16:36:58;23.50;93.00
74513;DHT22;62992;52.052;8.550;2022-08-21T16:39:24;23.40;92.70
74513;DHT22;62992;52.052;8.550;2022-08-21T16:41:49;23.40;92.50
74513;DHT22;62992;52.052;8.550;2022-08-21T16:44:17;23.40;93.60
74513;DHT22;62992;52.052;8.550;2022-08-21T16:46:44;23.40;94.80
74513;DHT22;62992;52.052;8.550;2022-08-21T16:49:09;23.40;95.40
74513;DHT22;62992;52.052;8.550;2022-08-21T16:51:36;23.40;94.80
74513;DHT22;62992;52.052;8.550;2022-08-21T16:54:02;23.40;94.40
74513;DHT22;62992;52.052;8.550;2022-08-21T16:56:28;23.30;94.90
74513;DHT22;62992;52.052;8.550;2022-08-21T16:58:55;23.30;94.90